sensor_id;sensor_type;location;lat;lon;timestamp;pressure;altitude;pressure_sealevel;temperature;humidity
34500;BME280;20745;50.882;6.962;2023-03-20T00:01:27;101312.84;;;11.28;100.00
34500;BME280;20745;50.882;6.962;2023-03-20T00:03:56;101320.13;;;11.28;100.00
34500;BME280;20745;50.882;6.962;2023-03-20T00:06:24;101315.38;;;11.30;100.00
34500;BME280;20745;50.882;6.962;2023-03-20T00:08:53;101328.72;;;11.31;100.00
34500;BME280;20745;50.882;6.962;2023-03-20T00:13:59;101325.34;;;11.29;100.00
34500;BME280;20745;50.882;6.962;2023-03-20T00:16:37;101322.84;;;11.28;100.00
34500;BME280;20745;50.882;6.962;2023-03-20T00:19:05;101332.28;;;11.32;100.00
34500;BME280;20745;50.882;6.962;2023-03-20T00:21:32;101335.31;;;11.37;100.00
34500;BME280;20745;50.882;6.962;2023-03-20T00:23:59;101332.59;;;11.37;100.00
34500;BME280;20745;50.882;6.962;2023-03-20T00:26:31;101335.34;;;11.29;100.00
34500;BME280;20745;50.882;6.962;2023-03-20T00:28:58;101335.34;;;11.29;100.00
34500;BME280;20745;50.882;6.962;2023-03-20T00:31:28;101344.47;;;11.28;100.00
34500;BME280;20745;50.882;6.962;2023-03-20T00:33:58;101342.59;;;11.28;100.00
34500;BME280;20745;50.882;6.962;2023-03-20T00:36:29;101347.50;;;11.17;100.00
34500;BME280;20745;50.882;6.962;2023-03-20T00:38:55;101352.25;;;11.23;100.00
34500;BME280;20745;50.882;6.962;2023-03-20T00:41:32;101347.69;;;11.23;100.00
34500;BME280;20745;50.882;6.962;2023-03-20T00:44:17;101350.38;;;11.15;100.00
34500;BME280;20745;50.882;6.962;2023-03-20T00:46:46;101358.16;;;11.10;100.00
34500;BME280;20745;50.882;6.962;2023-03-20T00:49:14;101356.47;;;11.09;100.00
34500;BME280;20745;50.882;6.962;2023-03-20T00:51:41;101358.66;;;11.14;100.00
34500;BME280;20745;50.882;6.962;2023-03-20T00:54:15;101363.22;;;11.05;100.00
34500;BME280;20745;50.882;6.962;2023-03-20T00:57:07;101358.84;;;11.04;100.00
34500;BME280;20745;50.882;6.962;2023-03-20T00:59:35;101347.69;;;11.07;100.00
34500;BME280;20745;50.882;6.962;2023-03-20T01:02:03;101359.19;;;11.01;100.00
34500;BME280;20745;50.882;6.962;2023-03-20T01:04:35;101361.22;;;11.07;100.00
34500;BME280;20745;50.882;6.962;2023-03-20T01:07:02;101368.47;;;11.07;100.00
34500;BME280;20745;50.882;6.962;2023-03-20T01:09:29;101378.25;;;11.00;100.00
34500;BME280;20745;50.882;6.962;2023-03-20T01:11:58;101370.84;;;11.02;100.00
34500;BME280;20745;50.882;6.962;2023-03-20T01:14:24;101363.72;;;11.01;100.00
34500;BME280;20745;50.882;6.962;2023-03-20T01:16:51;101361.03;;;11.09;100.00
34500;BME280;20745;50.882;6.962;2023-03-20T01:19:18;101359.16;;;11.09;100.00
34500;BME280;20745;50.882;6.962;2023-03-20T01:21:44;101356.31;;;11.03;100.00
34500;BME280;20745;50.882;6.962;2023-03-20T01:24:11;101364.59;;;11.01;100.00
34500;BME280;20745;50.882;6.962;2023-03-20T01:26:42;101352.75;;;11.02;100.00
34500;BME280;20745;50.882;6.962;2023-03-20T01:29:23;101348.19;;;11.03;100.00
34500;BME280;20745;50.882;6.962;2023-03-20T01:31:51;101359.84;;;11.11;100.00
34500;BME280;20745;50.882;6.962;2023-03-20T01:34:18;101354.13;;;11.06;100.00
34500;BME280;20745;50.882;6.962;2023-03-20T01:36:53;101367.28;;;11.01;100.00
34500;BME280;20745;50.882;6.962;2023-03-20T01:39:31;101357.47;;;11.08;100.00
34500;BME280;20745;50.882;6.962;2023-03-20T01:41:59;101355.13;;;11.05;100.00
34500;BME280;20745;50.882;6.962;2023-03-20T01:44:32;101350.72;;;11.04;100.00
34500;BME280;20745;50.882;6.962;2023-03-20T01:47:01;101347.34;;;11.10;100.00
34500;BME280;20745;50.882;6.962;2023-03-20T01:51:55;101336.88;;;11.07;100.00
34500;BME280;20745;50.882;6.962;2023-03-20T01:54:32;101327.75;;;11.08;100.00
34500;BME280;20745;50.882;6.962;2023-03-20T01:57:09;101341.63;;;11.13;100.00
34500;BME280;20745;50.882;6.962;2023-03-20T01:59:49;101329.09;;;11.12;100.00
34500;BME280;20745;50.882;6.962;2023-03-20T02:02:21;101333.81;;;11.18;100.00
34500;BME280;20745;50.882;6.962;2023-03-20T02:04:54;101337.53;;;11.17;100.00
34500;BME280;20745;50.882;6.962;2023-03-20T02:07:22;101340.75;;;11.13;100.00
34500;BME280;20745;50.882;6.962;2023-03-20T02:09:50;101336.19;;;11.05;100.00
34500;BME280;20745;50.882;6.962;2023-03-20T02:12:17;101344.13;;;11.07;100.00
34500;BME280;20745;50.882;6.962;2023-03-20T02:14:45;101347.69;;;11.07;100.00
34500;BME280;20745;50.882;6.962;2023-03-20T02:17:12;101335.88;;;11.00;100.00
34500;BME280;20745;50.882;6.962;2023-03-20T02:22:56;101352.09;;;11.00;100.00
34500;BME280;20745;50.882;6.962;2023-03-20T02:28:35;101351.75;;;11.03;100.00
34500;BME280;20745;50.882;6.962;2023-03-20T02:42:36;101338.75;;;10.99;100.00
34500;BME280;20745;50.882;6.962;2023-03-20T02:47:48;101334.84;;;11.01;100.00
34500;BME280;20745;50.882;6.962;2023-03-20T02:50:32;101343.97;;;10.92;100.00
34500;BME280;20745;50.882;6.962;2023-03-20T02:53:12;101346.34;;;10.87;100.00
34500;BME280;20745;50.882;6.962;2023-03-20T02:55:53;101331.47;;;10.91;100.00
34500;BME280;20745;50.882;6.962;2023-03-20T03:01:16;101322.53;;;10.83;100.00
34500;BME280;20745;50.882;6.962;2023-03-20T03:03:51;101330.44;;;10.60;100.00
34500;BME280;20745;50.882;6.962;2023-03-20T03:06:30;101341.06;;;10.46;100.00
34500;BME280;20745;50.882;6.962;2023-03-20T03:09:02;101354.72;;;10.44;100.00
34500;BME280;20745;50.882;6.962;2023-03-20T03:11:36;101355.41;;;10.62;100.00
34500;BME280;20745;50.882;6.962;2023-03-20T03:14:05;101352.03;;;10.52;100.00
34500;BME280;20745;50.882;6.962;2023-03-20T03:16:35;101351.00;;;10.45;100.00
34500;BME280;20745;50.882;6.962;2023-03-20T03:19:12;101359.09;;;10.45;100.00
34500;BME280;20745;50.882;6.962;2023-03-20T03:21:41;101354.03;;;10.42;100.00
34500;BME280;20745;50.882;6.962;2023-03-20T03:24:28;101350.00;;;10.46;100.00
34500;BME280;20745;50.882;6.962;2023-03-20T03:27:14;101340.84;;;10.39;100.00
34500;BME280;20745;50.882;6.962;2023-03-20T03:29:46;101342.56;;;10.40;100.00
34500;BME280;20745;50.882;6.962;2023-03-20T03:32:32;101355.56;;;10.45;100.00
34500;BME280;20745;50.882;6.962;2023-03-20T03:35:00;101358.13;;;10.46;100.00
34500;BME280;20745;50.882;6.962;2023-03-20T03:43:17;101330.59;;;10.59;100.00
34500;BME280;20745;50.882;6.962;2023-03-20T03:45:48;101317.44;;;10.64;100.00
34500;BME280;20745;50.882;6.962;2023-03-20T03:48:21;101324.38;;;10.66;100.00
34500;BME280;20745;50.882;6.962;2023-03-20T03:50:55;101332.63;;;10.57;100.00
34500;BME280;20745;50.882;6.962;2023-03-20T03:53:25;101341.59;;;10.57;100.00
34500;BME280;20745;50.882;6.962;2023-03-20T03:56:00;101343.25;;;10.50;100.00
34500;BME280;20745;50.882;6.962;2023-03-20T03:58:30;101344.94;;;10.43;100.00
34500;BME280;20745;50.882;6.962;2023-03-20T04:00:59;101351.00;;;10.37;100.00
34500;BME280;20745;50.882;6.962;2023-03-20T04:03:31;101342.88;;;10.37;100.00
34500;BME280;20745;50.882;6.962;2023-03-20T04:06:02;101344.56;;;10.38;100.00
34500;BME280;20745;50.882;6.962;2023-03-20T04:08:29;101357.75;;;10.33;100.00
34500;BME280;20745;50.882;6.962;2023-03-20T04:10:56;101370.00;;;10.28;100.00
34500;BME280;20745;50.882;6.962;2023-03-20T04:13:23;101369.66;;;10.23;100.00
34500;BME280;20745;50.882;6.962;2023-03-20T04:15:49;101364.81;;;10.26;100.00
34500;BME280;20745;50.882;6.962;2023-03-20T04:18:17;101364.28;;;10.31;100.00
34500;BME280;20745;50.882;6.962;2023-03-20T04:20:44;101367.50;;;10.26;100.00
34500;BME280;20745;50.882;6.962;2023-03-20T04:23:12;101359.72;;;10.23;100.00
34500;BME280;20745;50.882;6.962;2023-03-20T04:25:39;101364.13;;;10.24;100.00
34500;BME280;20745;50.882;6.962;2023-03-20T04:28:06;101368.31;;;10.27;100.00
34500;BME280;20745;50.882;6.962;2023-03-20T04:30:32;101369.84;;;10.21;100.00
34500;BME280;20745;50.882;6.962;2023-03-20T04:32:59;101358.72;;;10.24;100.00
34500;BME280;20745;50.882;6.962;2023-03-20T04:35:25;101362.06;;;10.18;100.00
34500;BME280;20745;50.882;6.962;2023-03-20T04:37:52;101364.50;;;10.03;100.00
34500;BME280;20745;50.882;6.962;2023-03-20T04:40:18;101356.25;;;10.05;100.00
34500;BME280;20745;50.882;6.962;2023-03-20T04:42:45;101363.19;;;10.08;100.00
34500;BME280;20745;50.882;6.962;2023-03-20T04:45:11;101355.91;;;10.00;100.00
34500;BME280;20745;50.882;6.962;2023-03-20T04:47:38;101349.97;;;9.96;100.00
34500;BME280;20745;50.882;6.962;2023-03-20T04:50:05;101343.47;;;10.07;100.00
34500;BME280;20745;50.882;6.962;2023-03-20T04:52:32;101331.66;;;10.08;100.00
34500;BME280;20745;50.882;6.962;2023-03-20T04:54:58;101337.84;;;10.00;100.00
34500;BME280;20745;50.882;6.962;2023-03-20T04:57:25;101338.31;;;9.96;100.00
34500;BME280;20745;50.882;6.962;2023-03-20T04:59:52;101336.69;;;10.03;100.00
34500;BME280;20745;50.882;6.962;2023-03-20T05:02:18;101333.66;;;10.06;100.00
34500;BME280;20745;50.882;6.962;2023-03-20T05:04:45;101339.09;;;10.14;100.00
34500;BME280;20745;50.882;6.962;2023-03-20T05:07:12;101343.97;;;10.11;100.00
34500;BME280;20745;50.882;6.962;2023-03-20T05:09:38;101342.44;;;10.08;100.00
34500;BME280;20745;50.882;6.962;2023-03-20T05:12:05;101331.81;;;10.07;100.00
34500;BME280;20745;50.882;6.962;2023-03-20T05:14:32;101336.34;;;10.06;100.00
34500;BME280;20745;50.882;6.962;2023-03-20T05:16:58;101339.38;;;10.03;100.00
34500;BME280;20745;50.882;6.962;2023-03-20T05:19:25;101336.69;;;10.03;100.00
34500;BME280;20745;50.882;6.962;2023-03-20T05:21:52;101320.13;;;9.98;100.00
34500;BME280;20745;50.882;6.962;2023-03-20T05:24:19;101326.53;;;9.97;100.00
34500;BME280;20745;50.882;6.962;2023-03-20T05:26:46;101323.31;;;9.93;100.00
34500;BME280;20745;50.882;6.962;2023-03-20T05:29:13;101329.03;;;9.90;100.00
34500;BME280;20745;50.882;6.962;2023-03-20T05:31:40;101327.19;;;9.91;100.00
34500;BME280;20745;50.882;6.962;2023-03-20T05:34:07;101325.44;;;9.82;100.00
34500;BME280;20745;50.882;6.962;2023-03-20T05:36:33;101332.88;;;9.80;100.00
34500;BME280;20745;50.882;6.962;2023-03-20T05:39:00;101328.47;;;9.79;100.00
34500;BME280;20745;50.882;6.962;2023-03-20T05:41:26;101327.47;;;9.80;100.00
34500;BME280;20745;50.882;6.962;2023-03-20T05:43:53;101329.34;;;9.87;100.00
34500;BME280;20745;50.882;6.962;2023-03-20T05:46:19;101322.78;;;9.90;100.00
34500;BME280;20745;50.882;6.962;2023-03-20T05:48:46;101339.47;;;9.85;100.00
34500;BME280;20745;50.882;6.962;2023-03-20T05:51:13;101327.78;;;9.77;100.00
34500;BME280;20745;50.882;6.962;2023-03-20T05:53:39;101337.59;;;9.86;100.00
34500;BME280;20745;50.882;6.962;2023-03-20T05:56:06;101337.09;;;9.82;100.00
34500;BME280;20745;50.882;6.962;2023-03-20T05:58:33;101343.19;;;9.84;100.00
34500;BME280;20745;50.882;6.962;2023-03-20T06:01:00;101337.28;;;9.89;100.00
34500;BME280;20745;50.882;6.962;2023-03-20T06:03:26;101346.72;;;9.85;100.00
34500;BME280;20745;50.882;6.962;2023-03-20T06:05:53;101348.75;;;9.83;100.00
34500;BME280;20745;50.882;6.962;2023-03-20T06:08:20;101339.16;;;9.96;100.00
34500;BME280;20745;50.882;6.962;2023-03-20T06:10:49;101339.81;;;9.90;100.00
34500;BME280;20745;50.882;6.962;2023-03-20T06:13:16;101350.66;;;9.98;100.00
34500;BME280;20745;50.882;6.962;2023-03-20T06:15:42;101349.81;;;9.98;100.00
34500;BME280;20745;50.882;6.962;2023-03-20T06:18:09;101361.78;;;9.95;100.00
34500;BME280;20745;50.882;6.962;2023-03-20T06:20:35;101353.84;;;9.94;100.00
34500;BME280;20745;50.882;6.962;2023-03-20T06:23:02;101357.56;;;10.01;100.00
34500;BME280;20745;50.882;6.962;2023-03-20T06:25:28;101345.59;;;10.03;100.00
34500;BME280;20745;50.882;6.962;2023-03-20T06:27:55;101347.53;;;10.11;100.00
34500;BME280;20745;50.882;6.962;2023-03-20T06:30:23;101347.88;;;10.16;100.00
34500;BME280;20745;50.882;6.962;2023-03-20T06:32:49;101348.22;;;10.21;100.00
34500;BME280;20745;50.882;6.962;2023-03-20T06:35:16;101295.28;;;9.86;100.00
34500;BME280;20745;50.882;6.962;2023-03-20T06:37:43;101351.09;;;10.20;100.00
34500;BME280;20745;50.882;6.962;2023-03-20T06:40:10;101353.09;;;10.18;100.00
34500;BME280;20745;50.882;6.962;2023-03-20T06:42:37;101349.09;;;10.22;100.00
34500;BME280;20745;50.882;6.962;2023-03-20T06:45:03;101350.94;;;10.29;100.00
34500;BME280;20745;50.882;6.962;2023-03-20T06:47:30;101344.03;;;10.27;100.00
34500;BME280;20745;50.882;6.962;2023-03-20T06:49:57;101340.50;;;10.34;100.00
34500;BME280;20745;50.882;6.962;2023-03-20T06:52:24;101346.94;;;10.41;100.00
34500;BME280;20745;50.882;6.962;2023-03-20T06:54:53;101356.75;;;10.58;100.00
34500;BME280;20745;50.882;6.962;2023-03-20T06:57:21;101355.75;;;10.51;100.00
34500;BME280;20745;50.882;6.962;2023-03-20T06:59:48;101356.44;;;10.53;100.00
34500;BME280;20745;50.882;6.962;2023-03-20T07:02:15;101362.66;;;10.46;100.00
34500;BME280;20745;50.882;6.962;2023-03-20T07:04:42;101363.50;;;10.46;100.00
34500;BME280;20745;50.882;6.962;2023-03-20T07:07:08;101345.91;;;10.42;100.00
34500;BME280;20745;50.882;6.962;2023-03-20T07:09:35;101372.81;;;10.52;100.00
34500;BME280;20745;50.882;6.962;2023-03-20T07:12:02;101374.66;;;10.51;100.00
34500;BME280;20745;50.882;6.962;2023-03-20T07:14:29;101374.66;;;10.51;100.00
34500;BME280;20745;50.882;6.962;2023-03-20T07:16:56;101385.81;;;10.56;100.00
34500;BME280;20745;50.882;6.962;2023-03-20T07:19:22;101395.28;;;10.60;100.00
34500;BME280;20745;50.882;6.962;2023-03-20T07:21:52;101400.69;;;10.68;100.00
34500;BME280;20745;50.882;6.962;2023-03-20T07:24:20;101407.44;;;10.72;100.00
34500;BME280;20745;50.882;6.962;2023-03-20T07:26:47;101417.59;;;10.78;100.00
34500;BME280;20745;50.882;6.962;2023-03-20T07:29:13;101415.91;;;10.85;100.00
34500;BME280;20745;50.882;6.962;2023-03-20T07:31:40;101413.56;;;10.90;100.00
34500;BME280;20745;50.882;6.962;2023-03-20T07:34:06;101414.75;;;10.96;100.00
34500;BME280;20745;50.882;6.962;2023-03-20T07:36:33;101421.34;;;11.01;100.00
34500;BME280;20745;50.882;6.962;2023-03-20T07:38:59;101421.69;;;11.06;100.00
34500;BME280;20745;50.882;6.962;2023-03-20T07:41:26;101425.41;;;11.05;100.00
34500;BME280;20745;50.882;6.962;2023-03-20T07:43:52;101432.16;;;11.01;100.00
34500;BME280;20745;50.882;6.962;2023-03-20T07:46:19;101432.16;;;11.01;100.00
34500;BME280;20745;50.882;6.962;2023-03-20T07:48:45;101430.47;;;11.00;100.00
34500;BME280;20745;50.882;6.962;2023-03-20T07:51:12;101427.94;;;10.99;100.00
34500;BME280;20745;50.882;6.962;2023-03-20T07:53:38;101427.78;;;11.00;100.00
34500;BME280;20745;50.882;6.962;2023-03-20T07:56:05;101421.03;;;10.96;100.00
34500;BME280;20745;50.882;6.962;2023-03-20T07:58:32;101425.22;;;11.07;100.00
34500;BME280;20745;50.882;6.962;2023-03-20T08:00:58;101430.16;;;11.03;100.00
34500;BME280;20745;50.882;6.962;2023-03-20T08:03:25;101433.88;;;11.10;100.00
34500;BME280;20745;50.882;6.962;2023-03-20T08:05:53;101442.63;;;11.12;100.00
34500;BME280;20745;50.882;6.962;2023-03-20T08:08:19;101440.97;;;11.27;100.00
34500;BME280;20745;50.882;6.962;2023-03-20T08:10:46;101430.81;;;11.29;100.00
34500;BME280;20745;50.882;6.962;2023-03-20T08:13:14;101445.38;;;11.36;100.00
34500;BME280;20745;50.882;6.962;2023-03-20T08:15:40;101451.13;;;11.33;100.00
34500;BME280;20745;50.882;6.962;2023-03-20T08:18:07;101450.09;;;11.42;100.00
34500;BME280;20745;50.882;6.962;2023-03-20T08:20:33;101444.00;;;11.48;100.00
34500;BME280;20745;50.882;6.962;2023-03-20T08:23:00;101446.22;;;11.53;100.00
34500;BME280;20745;50.882;6.962;2023-03-20T08:25:26;101446.38;;;11.59;100.00
34500;BME280;20745;50.882;6.962;2023-03-20T08:27:54;101445.72;;;11.65;100.00
34500;BME280;20745;50.882;6.962;2023-03-20T08:30:21;101444.38;;;11.69;100.00
34500;BME280;20745;50.882;6.962;2023-03-20T08:32:47;101454.66;;;11.74;100.00
34500;BME280;20745;50.882;6.962;2023-03-20T08:35:13;101453.66;;;11.75;100.00
34500;BME280;20745;50.882;6.962;2023-03-20T08:37:58;101447.06;;;11.77;100.00
34500;BME280;20745;50.882;6.962;2023-03-20T08:40:24;101452.47;;;11.77;100.00
34500;BME280;20745;50.882;6.962;2023-03-20T08:42:51;101444.84;;;11.81;100.00
34500;BME280;20745;50.882;6.962;2023-03-20T08:45:18;101454.16;;;11.86;100.00
34500;BME280;20745;50.882;6.962;2023-03-20T08:47:47;101446.88;;;11.87;100.00
34500;BME280;20745;50.882;6.962;2023-03-20T08:50:14;101448.38;;;11.97;100.00
34500;BME280;20745;50.882;6.962;2023-03-20T08:52:40;101449.75;;;11.93;100.00
34500;BME280;20745;50.882;6.962;2023-03-20T08:55:10;101449.56;;;11.95;100.00
34500;BME280;20745;50.882;6.962;2023-03-20T08:57:37;101452.44;;;11.93;100.00
34500;BME280;20745;50.882;6.962;2023-03-20T09:00:07;101458.53;;;11.95;100.00
34500;BME280;20745;50.882;6.962;2023-03-20T09:02:35;101458.19;;;11.98;100.00
34500;BME280;20745;50.882;6.962;2023-03-20T09:05:02;101453.28;;;12.02;100.00
34500;BME280;20745;50.882;6.962;2023-03-20T09:07:29;101457.84;;;12.09;100.00
34500;BME280;20745;50.882;6.962;2023-03-20T09:09:55;101458.69;;;12.02;100.00
34500;BME280;20745;50.882;6.962;2023-03-20T09:12:22;101458.00;;;12.08;100.00
34500;BME280;20745;50.882;6.962;2023-03-20T09:14:49;101457.44;;;12.20;100.00
34500;BME280;20745;50.882;6.962;2023-03-20T09:17:15;101457.78;;;12.17;100.00
34500;BME280;20745;50.882;6.962;2023-03-20T09:19:42;101458.44;;;12.27;100.00
34500;BME280;20745;50.882;6.962;2023-03-20T09:22:14;101458.94;;;12.31;100.00
34500;BME280;20745;50.882;6.962;2023-03-20T09:24:40;101455.22;;;12.32;100.00
34500;BME280;20745;50.882;6.962;2023-03-20T09:27:07;101450.19;;;12.21;100.00
34500;BME280;20745;50.882;6.962;2023-03-20T09:29:33;101460.13;;;12.28;100.00
34500;BME280;20745;50.882;6.962;2023-03-20T09:32:00;101444.56;;;12.30;100.00
34500;BME280;20745;50.882;6.962;2023-03-20T09:34:27;101457.75;;;12.33;100.00
34500;BME280;20745;50.882;6.962;2023-03-20T09:36:54;101456.03;;;12.41;100.00
34500;BME280;20745;50.882;6.962;2023-03-20T09:39:21;101453.31;;;12.41;100.00
34500;BME280;20745;50.882;6.962;2023-03-20T09:41:48;101461.84;;;12.29;100.00
34500;BME280;20745;50.882;6.962;2023-03-20T09:47:26;101456.66;;;12.43;100.00
34500;BME280;20745;50.882;6.962;2023-03-20T09:50:13;101458.03;;;12.47;100.00
34500;BME280;20745;50.882;6.962;2023-03-20T09:52:57;101455.28;;;12.55;100.00
34500;BME280;20745;50.882;6.962;2023-03-20T09:55:32;101448.13;;;12.62;100.00
34500;BME280;20745;50.882;6.962;2023-03-20T09:58:08;101451.81;;;12.69;100.00
34500;BME280;20745;50.882;6.962;2023-03-20T10:00:36;101453.88;;;12.67;100.00
34500;BME280;20745;50.882;6.962;2023-03-20T10:03:06;101450.13;;;12.68;100.00
34500;BME280;20745;50.882;6.962;2023-03-20T10:05:43;101464.66;;;12.75;100.00
34500;BME280;20745;50.882;6.962;2023-03-20T10:08:13;101464.91;;;12.65;100.00
34500;BME280;20745;50.882;6.962;2023-03-20T10:10:49;101455.56;;;12.68;100.00
34500;BME280;20745;50.882;6.962;2023-03-20T10:13:41;101460.13;;;12.67;100.00
34500;BME280;20745;50.882;6.962;2023-03-20T10:16:29;101456.25;;;12.62;100.00
34500;BME280;20745;50.882;6.962;2023-03-20T10:21:42;101450.72;;;12.55;100.00
34500;BME280;20745;50.882;6.962;2023-03-20T10:24:22;101452.16;;;12.66;100.00
34500;BME280;20745;50.882;6.962;2023-03-20T10:26:52;101459.59;;;12.72;100.00
34500;BME280;20745;50.882;6.962;2023-03-20T10:29:32;101446.38;;;12.69;100.00
34500;BME280;20745;50.882;6.962;2023-03-20T10:32:07;101457.28;;;12.61;100.00
34500;BME280;20745;50.882;6.962;2023-03-20T10:34:52;101455.28;;;12.55;100.00
34500;BME280;20745;50.882;6.962;2023-03-20T10:40:24;101452.41;;;12.56;100.00
34500;BME280;20745;50.882;6.962;2023-03-20T10:42:55;101450.53;;;12.57;100.00
34500;BME280;20745;50.882;6.962;2023-03-20T10:48:28;101454.28;;;12.48;83.73
34500;BME280;20745;50.882;6.962;2023-03-20T10:50:59;101448.19;;;12.46;83.29
34500;BME280;20745;50.882;6.962;2023-03-20T10:53:31;101454.69;;;12.37;82.53
34500;BME280;20745;50.882;6.962;2023-03-20T10:56:05;101444.22;;;12.25;79.42
34500;BME280;20745;50.882;6.962;2023-03-20T10:58:37;101438.03;;;12.09;79.26
34500;BME280;20745;50.882;6.962;2023-03-20T11:01:04;101444.69;;;12.37;79.70
34500;BME280;20745;50.882;6.962;2023-03-20T11:03:32;101434.81;;;12.52;80.06
34500;BME280;20745;50.882;6.962;2023-03-20T11:06:14;101434.81;;;12.52;77.20
34500;BME280;20745;50.882;6.962;2023-03-20T11:08:47;101435.84;;;12.51;78.19
34500;BME280;20745;50.882;6.962;2023-03-20T11:11:26;101439.25;;;12.45;76.92
34500;BME280;20745;50.882;6.962;2023-03-20T11:13:53;101439.72;;;12.49;79.10
34500;BME280;20745;50.882;6.962;2023-03-20T11:16:33;101435.63;;;12.53;78.84
34500;BME280;20745;50.882;6.962;2023-03-20T11:19:06;101439.03;;;12.55;79.31
34500;BME280;20745;50.882;6.962;2023-03-20T11:21:43;101428.53;;;12.52;80.69
34500;BME280;20745;50.882;6.962;2023-03-20T11:27:25;101432.63;;;12.48;79.59
34500;BME280;20745;50.882;6.962;2023-03-20T11:29:53;101424.09;;;12.59;82.03
34500;BME280;20745;50.882;6.962;2023-03-20T11:32:39;101422.22;;;12.59;78.86
34500;BME280;20745;50.882;6.962;2023-03-20T11:37:48;101415.50;;;12.55;78.98
34500;BME280;20745;50.882;6.962;2023-03-20T11:40:20;101420.56;;;12.50;77.94
34500;BME280;20745;50.882;6.962;2023-03-20T11:42:53;101409.28;;;12.38;78.43
34500;BME280;20745;50.882;6.962;2023-03-20T11:45:20;101414.69;;;12.47;78.53
34500;BME280;20745;50.882;6.962;2023-03-20T11:47:49;101404.19;;;12.44;80.46
34500;BME280;20745;50.882;6.962;2023-03-20T11:50:36;101402.88;;;12.40;79.21
34500;BME280;20745;50.882;6.962;2023-03-20T11:53:20;101401.63;;;12.50;81.48
34500;BME280;20745;50.882;6.962;2023-03-20T11:56:12;101399.06;;;12.57;80.53
34500;BME280;20745;50.882;6.962;2023-03-20T12:01:21;101398.94;;;12.73;78.42
34500;BME280;20745;50.882;6.962;2023-03-20T12:04:10;101393.34;;;12.74;77.94
34500;BME280;20745;50.882;6.962;2023-03-20T12:09:36;101396.03;;;12.74;77.52
34500;BME280;20745;50.882;6.962;2023-03-20T12:15:02;101394.38;;;12.73;75.40
34500;BME280;20745;50.882;6.962;2023-03-20T12:17:53;101390.16;;;12.71;76.40
34500;BME280;20745;50.882;6.962;2023-03-20T12:23:05;101389.25;;;12.78;76.39
34500;BME280;20745;50.882;6.962;2023-03-20T12:28:37;101381.34;;;12.69;78.73
34500;BME280;20745;50.882;6.962;2023-03-20T12:36:38;101371.97;;;12.79;80.93
34500;BME280;20745;50.882;6.962;2023-03-20T12:39:11;101371.91;;;12.87;79.08
34500;BME280;20745;50.882;6.962;2023-03-20T12:44:50;101353.00;;;12.49;81.44
34500;BME280;20745;50.882;6.962;2023-03-20T12:50:32;101357.47;;;12.42;85.71
34500;BME280;20745;50.882;6.962;2023-03-20T12:56:12;101352.56;;;12.06;83.53
34500;BME280;20745;50.882;6.962;2023-03-20T12:59:16;101331.53;;;12.16;86.65
34500;BME280;20745;50.882;6.962;2023-03-20T13:01:57;101353.78;;;12.65;83.44
34500;BME280;20745;50.882;6.962;2023-03-20T13:04:45;101359.81;;;12.75;79.31
34500;BME280;20745;50.882;6.962;2023-03-20T13:07:18;101354.72;;;12.95;82.81
34500;BME280;20745;50.882;6.962;2023-03-20T13:10:21;101344.47;;;13.13;82.86
34500;BME280;20745;50.882;6.962;2023-03-20T13:20:40;101352.09;;;13.09;78.68
34500;BME280;20745;50.882;6.962;2023-03-20T13:23:27;101349.44;;;13.24;80.29
34500;BME280;20745;50.882;6.962;2023-03-20T13:26:12;101347.69;;;13.31;76.65
34500;BME280;20745;50.882;6.962;2023-03-20T13:31:56;101340.22;;;13.33;81.26
34500;BME280;20745;50.882;6.962;2023-03-20T13:37:20;101341.22;;;13.32;80.60
34500;BME280;20745;50.882;6.962;2023-03-20T13:39:59;101333.28;;;13.45;79.87
34500;BME280;20745;50.882;6.962;2023-03-20T13:42:56;101332.25;;;13.46;79.83
34500;BME280;20745;50.882;6.962;2023-03-20T13:45:35;101326.94;;;13.67;81.03
34500;BME280;20745;50.882;6.962;2023-03-20T13:50:47;101311.41;;;13.61;76.19
34500;BME280;20745;50.882;6.962;2023-03-20T13:56:03;101325.81;;;13.61;77.70
34500;BME280;20745;50.882;6.962;2023-03-20T13:58:59;101320.97;;;13.71;77.84
34500;BME280;20745;50.882;6.962;2023-03-20T14:04:13;101308.94;;;13.95;82.73
34500;BME280;20745;50.882;6.962;2023-03-20T14:06:53;101305.91;;;14.19;82.59
34500;BME280;20745;50.882;6.962;2023-03-20T14:09:34;101313.88;;;14.06;76.50
34500;BME280;20745;50.882;6.962;2023-03-20T14:12:05;101305.97;;;14.04;76.67
34500;BME280;20745;50.882;6.962;2023-03-20T14:19:45;101300.25;;;13.85;78.58
34500;BME280;20745;50.882;6.962;2023-03-20T14:22:15;101313.19;;;13.83;78.01
34500;BME280;20745;50.882;6.962;2023-03-20T14:25:13;101307.91;;;13.96;80.46
34500;BME280;20745;50.882;6.962;2023-03-20T14:27:36;101303.13;;;13.98;79.81
34500;BME280;20745;50.882;6.962;2023-03-20T14:30:42;101313.75;;;13.93;77.82
34500;BME280;20745;50.882;6.962;2023-03-20T14:35:42;101301.38;;;13.90;78.80
34500;BME280;20745;50.882;6.962;2023-03-20T14:38:25;101300.91;;;13.87;78.97
34500;BME280;20745;50.882;6.962;2023-03-20T14:41:05;101299.31;;;13.78;80.67
34500;BME280;20745;50.882;6.962;2023-03-20T14:43:51;101297.47;;;13.78;79.66
34500;BME280;20745;50.882;6.962;2023-03-20T14:51:59;101291.19;;;13.78;78.65
34500;BME280;20745;50.882;6.962;2023-03-20T14:54:29;101287.53;;;13.71;79.55
34500;BME280;20745;50.882;6.962;2023-03-20T14:57:16;101281.44;;;13.69;79.18
34500;BME280;20745;50.882;6.962;2023-03-20T14:59:47;101282.84;;;13.65;80.20